Observations for LAWRENCE MUNICIPAL, MA (LWM)

KLWM 200754Z AUTO 04004KT 10SM CLR M05/M09 A3041 RMK AO2 SLP299 T10501089   
KLWM 200654Z AUTO 00000KT 10SM CLR M04/M09 A3041 RMK AO2 SLP301 T10441089   
KLWM 200554Z AUTO 00000KT 10SM CLR M04/M09 A3042 RMK AO2 SLP302 60000 T10391094 10022 21044 51002   
KLWM 200454Z AUTO 00000KT 10SM CLR M03/M10 A3042 RMK AO2 UPE04 SLP302 P0000 T10331100 400611056 
KLWM 200354Z AUTO 00000KT 10SM UP CLR M02/M11 A3042 RMK AO2 UPB49 SLP301 P0000 T10221106
KLWM 200254Z AUTO 00000KT 10SM CLR M02/M11 A3041 RMK AO2 SLP300 T10221111 51009 
KLWM 200154Z 08003KT 10SM CLR M01/M12 A3040 RMK AO2 SLP296 T10111122
KLWM 200054Z 00000KT 10SM CLR 01/M12 A3040 RMK AO2 SLP295 T00061122 
KLWM 192354Z 34003KT 10SM CLR 02/M13 A3038 RMK AO2 SLP290 60000 T00221128 10061 20022 53018 
KLWM 192254Z 30005KT 10SM CLR 04/M13 A3036 RMK AO2 SLP283 T00391133 
KLWM 192154Z 30009KT 10SM CLR 05/M12 A3034 RMK AO2 SLP275 T00501122 
KLWM 192054Z 30007G18KT 10SM BKN075 06/M12 A3033 RMK AO2 RAB21E32 SLP272 P0000 60000 T00561117 56008
KLWM 191954Z 29007KT 220V030 10SM BKN070 06/M11 A3033 RMK AO2 RAB29E53 SLP273 P0000 T00561111   
KLWM 191854Z 30008G17KT 10SM BKN070 04/M11 A3034 RMK AO2 SLP276 T00441111   
KLWM 191754Z 32011G18KT 270V350 10SM BKN070 05/M10 A3035 RMK AO2 SLP281 T00501100 10056 21028 58012 
KLWM 191654Z 32009KT 10SM BKN060 04/M10 A3037 RMK AO2 SLP286 T00391100  
KLWM 191554Z 32007KT 10SM FEW055 03/M10 A3038 RMK AO2 SLP290 T00331100  
KLWM 191454Z 28007KT 10SM CLR 03/M09 A3039 RMK AO2 SLP292 T00281089 50006   
KLWM 191354Z 32006KT 10SM CLR 01/M10 A3039 RMK AO2 SLP293 T00111100 
KLWM 191254Z 29005KT 10SM CLR M01/M08 A3038 RMK AO2 SLP290 T10111083
KLWM 191155Z COR 00000KT 10SM CLR M03/M08 A3037 RMK AO2 SLP286 T10281078 11022 21056 53018  
KLWM 191054Z 23003KT 10SM CLR M06/M09 A3035 RMK AO2 SLP279 T10561094
KLWM 190954Z AUTO 20003KT 10SM CLR M04/M10 A3033 RMK AO2 SLP273 T10391100   
KLWM 190854Z AUTO 00000KT 10SM BKN070 OVC090 M05/M10 A3032 RMK AO2 SLP268 T10501100 52000   
KLWM 190754Z AUTO 00000KT 10SM CLR M04/M11 A3032 RMK AO2 SLP268 T10391106